Time;durP1;ratioP1;P1;durP2;ratioP2;P2;SDS_P1;SDS_P2;PMS_P1;PMS_P2;Temp;Humidity;BMP_temperature;BMP_pressure;BME280_temperature;BME280_humidity;BME280_pressure;Samples;Min_cycle;Max_cycle;Signal;HPM_P1;HPM_P2
2021/12/19 00:04:40;;;;;;;10.37;7.97;;;3.40;99.90;;;;;;5093719;28;20267;-66
2021/12/19 00:09:17;;;;;;;20.13;9.10;;;3.40;99.90;;;;;;5096196;28;20278;-65
2021/12/19 00:11:43;;;;;;;9.13;6.63;;;3.30;99.90;;;;;;5095376;28;20168;-66
2021/12/19 00:14:09;;;;;;;11.57;6.60;;;3.30;99.90;;;;;;5092705;28;20196;-64
2021/12/19 00:16:34;;;;;;;15.00;7.10;;;3.30;99.90;;;;;;5090382;28;20492;-65
2021/12/19 00:19:00;;;;;;;8.90;6.93;;;3.20;99.90;;;;;;5090580;28;20160;-65
2021/12/19 00:21:26;;;;;;;13.60;6.40;;;3.30;99.90;;;;;;5090620;28;20184;-67
2021/12/19 00:23:53;;;;;;;9.90;6.00;;;3.20;99.90;;;;;;5090158;28;20188;-67
2021/12/19 00:26:19;;;;;;;18.55;8.25;;;3.20;99.90;;;;;;5089910;28;20506;-64
2021/12/19 00:28:46;;;;;;;13.23;7.80;;;3.20;99.90;;;;;;5090284;28;20168;-68
2021/12/19 00:31:12;;;;;;;6.90;6.03;;;3.20;99.90;;;;;;5090178;28;20447;-65
2021/12/19 00:33:39;;;;;;;16.60;8.63;;;3.30;99.90;;;;;;5089810;28;20212;-69
2021/12/19 00:36:06;;;;;;;10.38;6.63;;;3.30;99.90;;;;;;5072206;28;20216;-64
2021/12/19 00:38:32;;;;;;;12.80;6.45;;;3.20;99.90;;;;;;5089739;28;20172;-66
2021/12/19 00:40:58;;;;;;;17.30;7.93;;;3.30;99.90;;;;;;5089866;28;20189;-64
2021/12/19 00:43:34;;;;;;;8.23;5.22;;;3.30;99.90;;;;;;5089816;28;20431;-65
2021/12/19 00:46:08;;;;;;;11.52;8.75;;;3.30;99.90;;;;;;5089643;28;20164;-63
2021/12/19 00:48:39;;;;;;;16.35;8.88;;;3.30;99.90;;;;;;5089463;28;20165;-65
2021/12/19 00:51:08;;;;;;;15.68;7.45;;;3.30;99.90;;;;;;5089616;28;20244;-65
2021/12/19 00:53:35;;;;;;;10.55;7.18;;;3.30;99.90;;;;;;5089302;28;20301;-68
2021/12/19 00:56:02;;;;;;;11.32;7.70;;;3.20;99.90;;;;;;5089332;28;20219;-65
2021/12/19 00:58:27;;;;;;;12.77;8.38;;;3.20;99.90;;;;;;5088292;28;20369;-68
2021/12/19 01:00:53;;;;;;;6.60;4.80;;;3.20;99.90;;;;;;5089393;28;20169;-68
2021/12/19 01:03:21;;;;;;;15.18;8.30;;;3.10;99.90;;;;;;5089157;28;20353;-67
2021/12/19 01:05:47;;;;;;;9.10;6.32;;;3.10;99.90;;;;;;5089381;28;20172;-68
2021/12/19 01:08:13;;;;;;;12.45;9.30;;;3.10;99.90;;;;;;5088910;28;20231;-67
2021/12/19 01:10:42;;;;;;;11.93;7.60;;;3.10;99.90;;;;;;5089290;28;20274;-66
2021/12/19 01:13:07;;;;;;;15.88;7.32;;;3.10;99.90;;;;;;5089173;28;20193;-67
2021/12/19 01:15:33;;;;;;;13.90;6.87;;;3.00;99.90;;;;;;5081177;28;20166;-67
2021/12/19 01:18:00;;;;;;;14.23;8.57;;;3.10;99.90;;;;;;5068867;28;20370;-64
2021/12/19 01:20:29;;;;;;;13.48;8.45;;;3.10;99.90;;;;;;5069006;28;20414;-66
2021/12/19 01:22:55;;;;;;;14.30;7.47;;;3.20;99.90;;;;;;5068915;28;20262;-66
2021/12/19 01:25:21;;;;;;;13.63;8.23;;;3.20;99.90;;;;;;5068904;28;20201;-66
2021/12/19 01:27:48;;;;;;;11.60;6.90;;;3.20;99.90;;;;;;5068665;28;20269;-63
2021/12/19 01:30:14;;;;;;;10.23;6.80;;;3.20;99.90;;;;;;5068846;28;20431;-66
2021/12/19 01:32:41;;;;;;;18.98;7.93;;;3.30;99.90;;;;;;5068740;28;20169;-65
2021/12/19 01:35:09;;;;;;;12.52;7.35;;;3.30;99.90;;;;;;5068520;28;20269;-67
2021/12/19 01:37:36;;;;;;;16.85;9.18;;;3.20;99.90;;;;;;5050673;28;20412;-67
2021/12/19 01:40:03;;;;;;;14.38;8.32;;;3.20;99.90;;;;;;5068414;28;20369;-66
2021/12/19 01:42:35;;;;;;;17.92;10.20;;;3.20;99.90;;;;;;5068436;28;20231;-65
2021/12/19 01:45:01;;;;;;;11.73;7.07;;;3.20;99.90;;;;;;5068424;28;20185;-66
2021/12/19 01:47:27;;;;;;;13.17;9.67;;;3.20;99.90;;;;;;5068209;28;20317;-65
2021/12/19 01:49:55;;;;;;;14.10;9.17;;;3.20;99.90;;;;;;5068441;28;20400;-66
2021/12/19 01:52:22;;;;;;;17.33;9.80;;;3.10;99.90;;;;;;5068364;28;20682;-66
2021/12/19 01:54:49;;;;;;;14.82;7.35;;;3.10;99.90;;;;;;5068230;28;20197;-67
2021/12/19 01:57:15;;;;;;;14.30;9.10;;;3.20;99.90;;;;;;5067872;28;20197;-65
2021/12/19 01:59:40;;;;;;;13.57;8.73;;;3.20;99.90;;;;;;5068307;28;20243;-68
2021/12/19 02:02:06;;;;;;;13.63;7.83;;;3.20;99.90;;;;;;5068142;28;20361;-65
2021/12/19 02:04:33;;;;;;;15.00;8.93;;;3.30;99.90;;;;;;5067857;28;20213;-65
2021/12/19 02:07:00;;;;;;;20.83;9.30;;;3.20;99.90;;;;;;5067734;28;20188;-67
2021/12/19 02:09:25;;;;;;;19.88;9.80;;;3.20;99.90;;;;;;5067742;28;20225;-66
2021/12/19 02:11:52;;;;;;;16.07;9.30;;;3.20;99.90;;;;;;5067800;28;20392;-67
2021/12/19 02:14:18;;;;;;;14.02;7.30;;;3.20;99.90;;;;;;5067758;28;20440;-65
2021/12/19 02:16:45;;;;;;;14.57;9.90;;;3.20;99.90;;;;;;5084956;28;20197;-67
2021/12/19 02:19:11;;;;;;;15.88;8.85;;;3.10;99.90;;;;;;5088441;28;20207;-66
2021/12/19 02:21:38;;;;;;;17.13;9.77;;;3.20;99.90;;;;;;5087803;28;20393;-67
2021/12/19 02:24:08;;;;;;;12.85;9.02;;;3.20;99.90;;;;;;5087663;28;20192;-66
2021/12/19 02:26:36;;;;;;;26.60;10.18;;;3.20;99.90;;;;;;5087495;28;20160;-68
2021/12/19 02:29:01;;;;;;;24.83;11.80;;;3.30;99.90;;;;;;5087673;28;20176;-65
2021/12/19 02:31:30;;;;;;;15.63;9.40;;;3.20;99.90;;;;;;5087631;28;20177;-67
2021/12/19 02:50:12;;;;;;;12.25;8.25;;;3.40;99.90;;;;;;5087269;28;20284;-66
2021/12/19 02:52:37;;;;;;;14.80;8.82;;;3.40;99.90;;;;;;5087069;28;20491;-67
2021/12/19 02:55:05;;;;;;;23.50;9.30;;;3.40;99.90;;;;;;5087234;28;20192;-67
2021/12/19 02:57:31;;;;;;;9.00;6.25;;;3.40;99.90;;;;;;5069306;28;20220;-63
2021/12/19 02:59:58;;;;;;;11.23;7.17;;;3.40;99.90;;;;;;5087266;28;20203;-68
2021/12/19 03:02:24;;;;;;;19.83;9.70;;;3.40;99.90;;;;;;5086970;28;20399;-66
2021/12/19 03:04:59;;;;;;;23.60;8.85;;;3.40;99.90;;;;;;5086977;28;20215;-67
2021/12/19 03:07:26;;;;;;;10.43;6.50;;;3.40;99.90;;;;;;5086784;28;20427;-64
2021/12/19 03:17:57;;;;;;;6.45;4.00;;;3.40;99.90;;;;;;5033366;28;20199;-66
2021/12/19 03:20:24;;;;;;;17.13;7.03;;;3.40;99.90;;;;;;5067105;28;20169;-66
2021/12/19 03:22:50;;;;;;;9.60;7.30;;;3.40;99.90;;;;;;5066218;28;20273;-67
2021/12/19 03:25:16;;;;;;;12.00;5.27;;;3.40;99.90;;;;;;5066852;28;20186;-68
2021/12/19 03:27:41;;;;;;;13.88;10.32;;;3.40;99.90;;;;;;5066481;28;20332;-67
2021/12/19 03:30:09;;;;;;;15.57;9.23;;;3.40;99.90;;;;;;5066716;28;20177;-66
2021/12/19 03:32:34;;;;;;;12.40;6.53;;;3.40;99.90;;;;;;5066816;28;20165;-67
2021/12/19 03:35:00;;;;;;;15.97;7.00;;;3.30;99.90;;;;;;5066678;28;20444;-66
2021/12/19 03:37:26;;;;;;;15.40;11.40;;;3.30;99.90;;;;;;5066367;28;20209;-67
2021/12/19 03:39:56;;;;;;;12.00;7.10;;;3.30;99.90;;;;;;5066687;28;20158;-67
2021/12/19 03:42:27;;;;;;;17.35;9.55;;;3.40;99.90;;;;;;5066727;28;20486;-66
2021/12/19 03:44:53;;;;;;;9.55;8.05;;;3.30;99.90;;;;;;5066566;28;20197;-68
2021/12/19 03:47:19;;;;;;;19.30;10.30;;;3.30;99.90;;;;;;5066481;28;20240;-64
2021/12/19 03:49:46;;;;;;;15.73;8.77;;;3.30;99.90;;;;;;5066624;28;20166;-68
2021/12/19 03:52:12;;;;;;;16.45;8.75;;;3.20;99.90;;;;;;5066660;28;20212;-65
2021/12/19 03:54:37;;;;;;;17.13;8.27;;;3.20;99.90;;;;;;5066472;28;20432;-66
2021/12/19 03:57:03;;;;;;;16.40;6.90;;;3.10;99.90;;;;;;5048692;28;20208;-67
2021/12/19 03:59:31;;;;;;;10.57;6.83;;;3.00;99.90;;;;;;5066933;28;20236;-68
2021/12/19 04:01:56;;;;;;;12.50;6.82;;;3.10;99.90;;;;;;5066579;28;20523;-67
2021/12/19 04:04:22;;;;;;;16.63;6.90;;;3.10;99.90;;;;;;5066220;28;20201;-65
2021/12/19 04:06:48;;;;;;;17.53;8.50;;;3.10;99.90;;;;;;5066186;28;20161;-68
2021/12/19 04:09:13;;;;;;;19.97;8.33;;;3.20;99.90;;;;;;5066434;28;20335;-65
2021/12/19 04:11:39;;;;;;;12.80;7.80;;;3.10;99.90;;;;;;5048928;28;20285;-68
2021/12/19 04:14:05;;;;;;;18.30;11.43;;;3.20;99.90;;;;;;5066186;28;20185;-65
2021/12/19 04:16:31;;;;;;;14.83;6.83;;;3.20;99.90;;;;;;5082410;28;20254;-66
2021/12/19 04:18:56;;;;;;;17.53;8.53;;;3.20;99.90;;;;;;5086457;28;20157;-67
2021/12/19 04:21:22;;;;;;;18.13;9.23;;;3.20;99.90;;;;;;5086369;28;20399;-65
2021/12/19 04:23:48;;;;;;;11.85;6.63;;;3.20;99.90;;;;;;5085987;28;20187;-65
2021/12/19 04:26:14;;;;;;;20.03;9.23;;;3.20;99.90;;;;;;5086187;28;20172;-63
2021/12/19 04:28:39;;;;;;;17.13;10.00;;;3.20;99.90;;;;;;5086101;28;20187;-67
2021/12/19 04:31:05;;;;;;;14.53;7.10;;;3.20;99.90;;;;;;5086296;28;20164;-67
2021/12/19 04:33:36;;;;;;;14.33;8.93;;;3.30;99.90;;;;;;5070130;28;20238;-68
2021/12/19 04:36:05;;;;;;;14.48;7.10;;;3.30;99.90;;;;;;5089673;28;20199;-64
2021/12/19 04:39:38;;;;;;;19.17;7.93;;;3.30;99.90;;;;;;5071802;28;20171;-67
2021/12/19 04:55:23;;;;;;;14.60;8.40;;;3.30;99.90;;;;;;5089414;28;20211;-68
2021/12/19 05:00:19;;;;;;;14.60;8.57;;;3.30;99.90;;;;;;5089602;28;20176;-65
2021/12/19 05:02:57;;;;;;;14.55;8.05;;;3.20;99.90;;;;;;5089275;28;20195;-65
2021/12/19 05:16:01;;;;;;;12.52;7.90;;;3.30;99.90;;;;;;5077152;28;20220;-64
2021/12/19 05:18:30;;;;;;;18.87;9.60;;;3.30;99.90;;;;;;5068931;28;20169;-65
2021/12/19 05:21:03;;;;;;;19.35;8.98;;;3.30;99.90;;;;;;5068958;28;20169;-65
2021/12/19 05:25:59;;;;;;;10.65;6.95;;;3.30;99.90;;;;;;5069034;28;20177;-67
2021/12/19 05:28:24;;;;;;;12.32;6.88;;;3.30;99.90;;;;;;5068520;28;20162;-64
2021/12/19 05:30:50;;;;;;;13.57;7.70;;;3.30;99.90;;;;;;5068804;28;20381;-65
2021/12/19 05:33:16;;;;;;;17.10;8.93;;;3.30;99.90;;;;;;5068796;28;20281;-65
2021/12/19 05:46:41;;;;;;;9.27;6.07;;;3.40;99.90;;;;;;5067895;28;20182;-67
2021/12/19 05:49:08;;;;;;;8.27;6.18;;;3.40;99.90;;;;;;5068365;28;20192;-66
2021/12/19 05:51:34;;;;;;;11.95;6.65;;;3.30;99.90;;;;;;5068371;28;20385;-66
2021/12/19 05:54:00;;;;;;;13.15;6.35;;;3.30;99.90;;;;;;5068132;28;20185;-64
2021/12/19 05:56:26;;;;;;;10.73;5.57;;;3.30;99.90;;;;;;5067774;28;20215;-64
2021/12/19 05:58:51;;;;;;;8.60;5.60;;;3.30;99.90;;;;;;5068257;28;20266;-64
2021/12/19 06:01:17;;;;;;;5.33;4.33;;;3.30;99.90;;;;;;5068234;28;20169;-66
2021/12/19 06:03:43;;;;;;;4.27;2.70;;;3.30;99.90;;;;;;5067901;28;20197;-66
2021/12/19 06:06:09;;;;;;;5.20;4.70;;;3.30;99.90;;;;;;5067934;28;20176;-67
2021/12/19 06:08:34;;;;;;;5.13;3.50;;;3.30;99.90;;;;;;5067877;28;20189;-65
2021/12/19 06:11:00;;;;;;;5.37;3.33;;;3.30;99.90;;;;;;5068026;28;20161;-64
2021/12/19 06:13:26;;;;;;;6.77;5.00;;;3.30;99.90;;;;;;5067964;28;20185;-66
2021/12/19 06:15:54;;;;;;;5.67;3.70;;;3.20;99.90;;;;;;5078889;28;20208;-66
2021/12/19 06:18:20;;;;;;;10.20;4.13;;;3.20;99.90;;;;;;5087720;28;20157;-67
2021/12/19 06:20:46;;;;;;;7.77;5.17;;;3.30;99.90;;;;;;5087837;28;20180;-62
2021/12/19 06:23:11;;;;;;;7.90;4.07;;;3.30;99.90;;;;;;5087706;28;20193;-68
2021/12/19 06:25:37;;;;;;;6.00;2.50;;;3.30;99.90;;;;;;5087773;28;20670;-66
2021/12/19 06:28:03;;;;;;;6.83;4.80;;;3.30;99.90;;;;;;5087537;28;20169;-67
2021/12/19 06:30:29;;;;;;;9.25;5.30;;;3.30;99.90;;;;;;5087561;28;20165;-65
2021/12/19 06:32:56;;;;;;;8.50;5.10;;;3.30;99.90;;;;;;5087388;28;20252;-68
2021/12/19 06:35:22;;;;;;;4.25;2.42;;;3.30;99.90;;;;;;5087568;28;20233;-67
2021/12/19 06:37:49;;;;;;;3.83;3.15;;;3.20;99.90;;;;;;5087130;28;20233;-65
2021/12/19 06:40:19;;;;;;;3.47;2.63;;;3.20;99.90;;;;;;5087428;28;20332;-68
2021/12/19 06:42:44;;;;;;;5.47;2.50;;;3.20;99.90;;;;;;5087382;28;20247;-65
2021/12/19 06:45:11;;;;;;;4.93;2.93;;;3.20;99.90;;;;;;5087315;28;20188;-66
2021/12/19 06:47:37;;;;;;;7.68;3.22;;;3.30;99.90;;;;;;5069347;28;20536;-67
2021/12/19 06:50:03;;;;;;;4.20;2.20;;;3.30;99.90;;;;;;5087226;28;20184;-68
2021/12/19 06:52:29;;;;;;;4.05;2.30;;;3.40;99.90;;;;;;5087430;28;20187;-66
2021/12/19 06:54:55;;;;;;;7.60;2.80;;;3.40;99.90;;;;;;5087189;28;20204;-66
2021/12/19 06:57:20;;;;;;;3.10;2.60;;;3.30;99.90;;;;;;5085949;28;20200;-67
2021/12/19 06:59:47;;;;;;;4.57;2.73;;;3.30;99.90;;;;;;5087184;28;20237;-68
2021/12/19 07:02:15;;;;;;;4.35;3.15;;;3.40;99.90;;;;;;5086974;28;20176;-67
2021/12/19 07:04:42;;;;;;;6.68;3.97;;;3.40;99.90;;;;;;5086918;28;20192;-65
2021/12/19 07:07:07;;;;;;;5.00;4.03;;;3.40;99.90;;;;;;5086750;28;20179;-66
2021/12/19 07:09:33;;;;;;;17.80;4.17;;;3.40;99.90;;;;;;5087145;28;20389;-64
2021/12/19 07:11:59;;;;;;;7.20;4.10;;;3.40;99.90;;;;;;5087043;28;20203;-64
2021/12/19 07:14:24;;;;;;;2.33;2.23;;;3.40;99.90;;;;;;5086886;28;20275;-68
2021/12/19 07:16:50;;;;;;;6.97;3.70;;;3.40;99.90;;;;;;5067856;28;20193;-68
2021/12/19 07:19:16;;;;;;;6.70;3.03;;;3.40;99.90;;;;;;5066820;28;20227;-64
2021/12/19 07:21:41;;;;;;;4.60;3.73;;;3.40;99.90;;;;;;5066769;28;20271;-67
2021/12/19 07:24:07;;;;;;;4.23;3.13;;;3.40;99.90;;;;;;5066779;28;20201;-65
2021/12/19 07:26:33;;;;;;;2.97;2.33;;;3.50;99.90;;;;;;5066541;28;20193;-66
2021/12/19 07:28:58;;;;;;;4.57;3.20;;;3.40;99.90;;;;;;5066845;28;20272;-63
2021/12/19 07:31:24;;;;;;;5.07;2.50;;;3.50;99.90;;;;;;5066902;28;20170;-67
2021/12/19 07:33:50;;;;;;;10.53;5.10;;;3.40;99.90;;;;;;5066720;28;20333;-65
2021/12/19 07:36:18;;;;;;;4.35;3.40;;;3.40;99.90;;;;;;5066457;28;20625;-65
2021/12/19 07:38:53;;;;;;;2.97;2.53;;;3.50;99.90;;;;;;5066751;28;20314;-65
2021/12/19 07:41:19;;;;;;;8.60;4.30;;;3.40;99.90;;;;;;5066704;28;20268;-68
2021/12/19 07:43:45;;;;;;;3.63;3.20;;;3.40;99.90;;;;;;5075915;28;20257;-67
2021/12/19 07:46:10;;;;;;;7.63;2.90;;;3.40;99.90;;;;;;5106843;27;20175;-67
2021/12/19 07:48:36;;;;;;;5.80;1.97;;;3.40;99.90;;;;;;5101622;27;20175;-65
2021/12/19 07:51:02;;;;;;;9.83;2.90;;;3.40;99.90;;;;;;5082049;28;20263;-67
2021/12/19 07:53:27;;;;;;;4.23;2.83;;;3.40;99.90;;;;;;5101162;27;20419;-64
2021/12/19 07:55:53;;;;;;;3.00;1.60;;;3.50;99.90;;;;;;5105697;27;20314;-66
2021/12/19 07:58:19;;;;;;;2.80;2.70;;;3.50;99.90;;;;;;5086361;28;20168;-67
2021/12/19 08:00:44;;;;;;;4.33;2.40;;;3.50;99.90;;;;;;5068425;28;20273;-68
2021/12/19 08:03:10;;;;;;;3.50;2.33;;;3.50;99.90;;;;;;5086417;28;20196;-66
2021/12/19 08:05:36;;;;;;;4.77;3.03;;;3.50;99.90;;;;;;5086847;28;20203;-65
2021/12/19 08:08:04;;;;;;;3.77;2.60;;;3.60;99.90;;;;;;5071125;28;20169;-70
2021/12/19 08:13:01;;;;;;;5.57;3.95;;;3.70;99.90;;;;;;5090115;28;20172;-68
2021/12/19 08:15:26;;;;;;;4.72;3.20;;;3.80;99.90;;;;;;5090240;28;20165;-65
2021/12/19 08:17:52;;;;;;;6.17;3.73;;;3.80;99.90;;;;;;5072391;28;20183;-67
2021/12/19 08:20:18;;;;;;;4.00;2.93;;;3.80;99.90;;;;;;5089996;28;20170;-68
2021/12/19 08:22:46;;;;;;;4.33;3.43;;;3.70;99.90;;;;;;5089902;28;20218;-69
2021/12/19 08:25:11;;;;;;;9.98;4.63;;;3.80;99.90;;;;;;5090009;28;20179;-65
2021/12/19 08:27:37;;;;;;;4.60;3.00;;;3.70;99.90;;;;;;5089565;28;20161;-64
2021/12/19 08:30:05;;;;;;;4.40;3.67;;;3.70;99.90;;;;;;5089578;28;20373;-69
2021/12/19 08:32:31;;;;;;;6.13;3.65;;;3.60;99.90;;;;;;5089709;28;20299;-68
2021/12/19 08:34:57;;;;;;;4.97;3.67;;;3.60;99.90;;;;;;5089760;28;20199;-69
2021/12/19 08:37:22;;;;;;;4.83;3.10;;;3.60;99.90;;;;;;5089473;28;20196;-66
2021/12/19 08:39:48;;;;;;;5.80;2.57;;;3.60;99.90;;;;;;5089814;28;20241;-67
2021/12/19 08:42:14;;;;;;;3.93;2.10;;;3.50;99.90;;;;;;5089535;28;20168;-66
2021/12/19 08:44:41;;;;;;;4.28;2.13;;;3.50;99.90;;;;;;5089541;28;20285;-69
2021/12/19 08:47:07;;;;;;;2.50;2.15;;;3.50;99.90;;;;;;5089449;28;20184;-69
2021/12/19 08:49:34;;;;;;;4.05;2.72;;;3.50;99.90;;;;;;5089566;28;20173;-65
2021/12/19 08:52:01;;;;;;;4.18;3.75;;;3.40;99.90;;;;;;5089084;28;20241;-67
2021/12/19 08:54:26;;;;;;;3.38;2.42;;;3.50;99.90;;;;;;5089542;28;20231;-66
2021/12/19 08:56:52;;;;;;;4.13;2.90;;;3.50;99.90;;;;;;5088989;28;20200;-67
2021/12/19 08:59:18;;;;;;;3.50;3.20;;;3.50;99.90;;;;;;5089400;28;20168;-66
2021/12/19 09:01:44;;;;;;;3.63;2.50;;;3.50;99.90;;;;;;5072412;28;20471;-69
2021/12/19 09:04:09;;;;;;;6.60;3.20;;;3.50;99.90;;;;;;5068798;28;20443;-66
2021/12/19 09:06:36;;;;;;;4.70;3.03;;;3.50;99.90;;;;;;5068828;28;20209;-68
2021/12/19 09:09:04;;;;;;;2.40;2.05;;;3.50;99.90;;;;;;5069242;28;20179;-63
2021/12/19 09:11:31;;;;;;;4.47;2.05;;;3.50;99.90;;;;;;5069035;28;20184;-66
2021/12/19 09:13:56;;;;;;;3.72;2.30;;;3.50;99.90;;;;;;5051467;28;20421;-65
2021/12/19 09:16:22;;;;;;;2.33;2.17;;;3.50;99.90;;;;;;5083375;28;20212;-68
2021/12/19 09:18:48;;;;;;;4.70;3.70;;;3.50;99.90;;;;;;5088818;28;20277;-65
2021/12/19 09:21:14;;;;;;;3.20;2.80;;;3.50;99.90;;;;;;5088209;28;20165;-69
2021/12/19 09:23:40;;;;;;;6.22;3.67;;;3.60;99.90;;;;;;5088888;28;20659;-67
2021/12/19 09:26:06;;;;;;;3.33;2.00;;;3.60;99.90;;;;;;5088774;28;20180;-66
2021/12/19 09:28:32;;;;;;;4.00;2.53;;;3.60;99.90;;;;;;5087401;28;20422;-72
2021/12/19 09:30:57;;;;;;;5.30;2.03;;;3.70;99.90;;;;;;5088971;28;20170;-66
2021/12/19 09:33:23;;;;;;;3.23;2.00;;;3.80;99.90;;;;;;5088721;28;20563;-70
2021/12/19 09:35:49;;;;;;;5.43;3.97;;;3.90;99.90;;;;;;5088624;28;20282;-68
2021/12/19 09:38:14;;;;;;;3.63;2.67;;;3.90;99.90;;;;;;5088454;28;20386;-67
2021/12/19 09:40:43;;;;;;;2.47;2.27;;;3.90;99.90;;;;;;5071160;28;20149;-68
2021/12/19 09:43:41;;;;;;;3.85;2.95;;;4.00;99.90;;;;;;5088735;28;20181;-69
2021/12/19 09:45:59;;;;;;;2.88;2.28;;;4.10;99.90;;;;;;5094712;27;20194;-68
2021/12/19 09:48:28;;;;;;;3.33;2.50;;;4.10;99.90;;;;;;5108588;27;20285;-70
2021/12/19 09:50:54;;;;;;;4.45;2.72;;;4.10;99.90;;;;;;5108490;27;20165;-65
2021/12/19 09:53:20;;;;;;;4.03;2.45;;;4.20;99.90;;;;;;5108382;27;20195;-71
2021/12/19 09:55:46;;;;;;;3.10;2.20;;;4.20;99.90;;;;;;5091022;28;20183;-66
2021/12/19 09:58:11;;;;;;;4.33;3.93;;;4.20;99.90;;;;;;5108427;27;20181;-70
2021/12/19 10:00:37;;;;;;;2.37;1.83;;;4.30;99.90;;;;;;5081376;27;20382;-67
2021/12/19 10:03:03;;;;;;;3.00;2.80;;;4.30;99.90;;;;;;5067880;28;20389;-70
2021/12/19 10:05:30;;;;;;;3.42;2.47;;;4.30;99.90;;;;;;5068072;28;20185;-66
2021/12/19 10:08:02;;;;;;;3.03;2.58;;;4.30;99.90;;;;;;5050215;28;20267;-70
2021/12/19 10:10:44;;;;;;;6.20;2.90;;;4.20;99.90;;;;;;5067887;28;20166;-65
2021/12/19 10:13:10;;;;;;;4.88;2.35;;;4.30;99.90;;;;;;5067947;28;20243;-67
2021/12/19 10:15:39;;;;;;;4.50;2.10;;;4.30;99.90;;;;;;5076077;28;20315;-66
2021/12/19 10:18:14;;;;;;;3.75;3.35;;;4.30;99.90;;;;;;5087504;28;20403;-69
2021/12/19 10:20:58;;;;;;;2.72;2.22;;;4.30;99.90;;;;;;5070000;28;20331;-68
2021/12/19 10:23:32;;;;;;;2.47;2.28;;;4.40;99.90;;;;;;5070250;28;20212;-68
2021/12/19 10:26:10;;;;;;;3.00;2.28;;;4.40;99.90;;;;;;5087761;28;20173;-66
2021/12/19 10:28:55;;;;;;;2.50;2.30;;;4.30;99.90;;;;;;5087471;28;20282;-67
2021/12/19 10:31:22;;;;;;;2.33;2.13;;;4.40;99.90;;;;;;5087519;28;20221;-66
2021/12/19 10:33:48;;;;;;;2.90;2.10;;;4.50;99.90;;;;;;5087470;28;20184;-69
2021/12/19 10:36:16;;;;;;;3.28;2.97;;;4.50;99.90;;;;;;5087419;28;20194;-66
2021/12/19 10:38:52;;;;;;;2.00;1.90;;;4.60;99.90;;;;;;5070084;28;20169;-66
2021/12/19 10:41:30;;;;;;;2.38;2.17;;;4.70;99.90;;;;;;5087466;28;20168;-69
2021/12/19 10:44:03;;;;;;;1.80;1.70;;;4.60;99.90;;;;;;5087237;28;20196;-66
2021/12/19 10:46:38;;;;;;;3.42;2.00;;;4.60;99.90;;;;;;5087101;28;20188;-70
2021/12/19 10:49:05;;;;;;;3.40;2.78;;;4.50;99.90;;;;;;5087184;28;20314;-66
2021/12/19 10:51:37;;;;;;;2.35;2.00;;;4.50;99.90;;;;;;5087098;28;20285;-69
2021/12/19 10:54:07;;;;;;;2.88;1.73;;;4.50;99.90;;;;;;5087073;28;20260;-66
2021/12/19 10:56:37;;;;;;;3.88;2.20;;;4.40;99.90;;;;;;5086816;28;20216;-68
2021/12/19 10:59:06;;;;;;;1.40;1.30;;;4.40;99.90;;;;;;5087031;28;20239;-65
2021/12/19 11:01:47;;;;;;;3.22;1.65;;;4.30;99.90;;;;;;5087038;28;20165;-69
2021/12/19 11:04:12;;;;;;;2.90;1.85;;;4.40;99.90;;;;;;5086856;28;20332;-68
2021/12/19 11:07:07;;;;;;;5.50;1.73;;;4.50;99.90;;;;;;5086845;28;20160;-67
2021/12/19 11:09:37;;;;;;;1.65;1.55;;;4.50;99.90;;;;;;5065610;28;20257;-68
2021/12/19 11:12:05;;;;;;;3.33;2.17;;;4.50;99.90;;;;;;5087255;28;20156;-68
2021/12/19 11:14:39;;;;;;;2.50;2.30;;;4.40;99.90;;;;;;5087012;28;20185;-70
2021/12/19 11:17:18;;;;;;;6.40;1.70;;;4.40;99.90;;;;;;5066578;28;20256;-67
2021/12/19 11:19:44;;;;;;;5.28;3.08;;;4.50;99.90;;;;;;5067016;28;20166;-70
2021/12/19 11:22:11;;;;;;;1.07;1.07;;;4.40;99.90;;;;;;5066942;28;20169;-67
2021/12/19 11:24:37;;;;;;;2.80;1.65;;;4.50;99.90;;;;;;5066643;28;20443;-66
2021/12/19 11:27:05;;;;;;;2.00;1.63;;;4.50;99.90;;;;;;5066616;28;20232;-68
2021/12/19 11:29:31;;;;;;;5.40;2.00;;;4.50;99.90;;;;;;5066727;28;20480;-66
2021/12/19 11:32:00;;;;;;;1.40;1.30;;;4.50;99.90;;;;;;5066447;28;20173;-67
2021/12/19 11:34:47;;;;;;;2.00;1.83;;;4.50;99.90;;;;;;5066697;28;20421;-68
2021/12/19 11:37:23;;;;;;;1.70;1.60;;;4.50;99.90;;;;;;5066345;28;20276;-68
2021/12/19 11:39:54;;;;;;;2.10;1.90;;;4.50;99.90;;;;;;5066812;28;20193;-69
2021/12/19 11:42:32;;;;;;;1.38;1.08;;;4.50;99.90;;;;;;5066668;28;20176;-67
2021/12/19 11:47:51;;;;;;;5.57;2.22;;;4.40;99.90;;;;;;5070403;28;20170;-66
2021/12/19 11:50:20;;;;;;;1.80;1.70;;;4.50;99.90;;;;;;5071045;28;20197;-68
2021/12/19 11:52:47;;;;;;;3.47;3.17;;;4.50;99.90;;;;;;5053024;28;20222;-68
2021/12/19 11:55:17;;;;;;;1.77;1.63;;;4.60;99.90;;;;;;5053068;28;20396;-68
2021/12/19 11:58:09;;;;;;;3.67;2.33;;;4.60;99.90;;;;;;5070164;28;20214;-70
2021/12/19 12:00:34;;;;;;;1.42;1.27;;;4.60;99.90;;;;;;5070892;28;20153;-66
2021/12/19 12:03:12;;;;;;;3.07;1.63;;;4.70;99.90;;;;;;5070717;28;20182;-70
2021/12/19 12:05:40;;;;;;;1.90;1.80;;;4.60;99.90;;;;;;5070651;28;20339;-66
2021/12/19 12:08:10;;;;;;;1.60;1.50;;;4.60;99.90;;;;;;5070153;28;20153;-70
2021/12/19 12:10:55;;;;;;;2.08;1.50;;;4.60;99.90;;;;;;5070589;28;20151;-66
2021/12/19 12:13:33;;;;;;;3.10;2.03;;;4.60;99.90;;;;;;5070678;28;20221;-70
2021/12/19 12:16:33;;;;;;;2.25;1.88;;;4.70;99.90;;;;;;5082227;28;20296;-65
2021/12/19 12:19:01;;;;;;;1.67;1.05;;;4.70;99.90;;;;;;5090855;28;20163;-70
2021/12/19 12:21:33;;;;;;;2.20;2.03;;;4.70;99.90;;;;;;5091475;28;20192;-70
2021/12/19 12:24:25;;;;;;;2.83;1.88;;;4.70;99.90;;;;;;5090327;28;20255;-68
2021/12/19 12:27:00;;;;;;;2.15;1.65;;;4.70;99.90;;;;;;5087635;28;20175;-67
2021/12/19 12:29:26;;;;;;;2.45;1.88;;;4.70;99.90;;;;;;5093655;28;20180;-71
2021/12/19 12:31:53;;;;;;;1.70;1.60;;;4.60;99.90;;;;;;5093694;28;20240;-69
2021/12/19 12:34:19;;;;;;;2.05;1.95;;;4.70;99.90;;;;;;5090596;28;20297;-67
2021/12/19 12:36:46;;;;;;;3.00;2.13;;;4.70;99.90;;;;;;5089652;28;20296;-67
2021/12/19 12:39:19;;;;;;;2.90;2.70;;;4.70;99.90;;;;;;5090076;28;20308;-67
2021/12/19 12:44:14;;;;;;;3.75;2.95;;;4.80;99.90;;;;;;5089805;28;20188;-66
2021/12/19 12:46:42;;;;;;;5.82;1.77;;;4.80;99.90;;;;;;5089274;28;20301;-70
2021/12/19 12:49:12;;;;;;;3.50;2.03;;;4.80;99.90;;;;;;5089661;28;20223;-69
2021/12/19 12:51:44;;;;;;;4.22;3.30;;;4.80;99.90;;;;;;5089665;28;20298;-68
2021/12/19 12:54:11;;;;;;;2.17;2.03;;;4.80;99.90;;;;;;5088265;28;20294;-65
2021/12/19 12:56:44;;;;;;;2.00;1.80;;;4.90;99.90;;;;;;5088932;28;20209;-69
2021/12/19 12:59:11;;;;;;;2.72;2.40;;;4.80;99.90;;;;;;5089440;28;20163;-68
2021/12/19 13:01:45;;;;;;;2.03;1.92;;;4.80;99.90;;;;;;5089373;28;20230;-70
2021/12/19 13:04:28;;;;;;;1.70;1.60;;;4.70;99.90;;;;;;5089143;28;20198;-67
2021/12/19 13:07:09;;;;;;;2.97;2.67;;;4.70;99.90;;;;;;5089122;28;20308;-65
2021/12/19 13:09:34;;;;;;;3.10;2.45;;;4.60;99.90;;;;;;5089541;28;20172;-67
2021/12/19 13:12:20;;;;;;;2.73;2.50;;;4.50;99.90;;;;;;5089017;28;20174;-64
2021/12/19 13:14:51;;;;;;;2.40;2.30;;;4.50;99.90;;;;;;5087266;28;20239;-66
2021/12/19 13:17:31;;;;;;;4.22;3.83;;;4.50;99.90;;;;;;5068410;28;20277;-69
2021/12/19 13:19:58;;;;;;;3.45;3.15;;;4.50;99.90;;;;;;5068994;28;20184;-69
2021/12/19 13:22:35;;;;;;;5.80;2.65;;;4.40;99.90;;;;;;5068888;28;20156;-69
2021/12/19 13:25:12;;;;;;;4.57;4.15;;;4.40;99.90;;;;;;5068921;28;20197;-68
2021/12/19 13:27:41;;;;;;;2.25;2.10;;;4.40;99.90;;;;;;5068431;28;20157;-65
2021/12/19 13:30:12;;;;;;;2.67;2.38;;;4.40;99.90;;;;;;5069076;28;20168;-68
2021/12/19 13:33:05;;;;;;;3.00;2.70;;;4.40;99.90;;;;;;5068727;28;20212;-67
2021/12/19 13:35:36;;;;;;;2.38;2.15;;;4.40;99.90;;;;;;5062378;28;20185;-64
2021/12/19 13:38:37;;;;;;;3.72;2.42;;;4.30;99.90;;;;;;5068197;28;20358;-67
2021/12/19 13:41:06;;;;;;;3.25;2.97;;;4.30;99.90;;;;;;5007659;28;20234;-67
2021/12/19 13:43:34;;;;;;;2.83;2.60;;;4.30;99.90;;;;;;5056965;28;20313;-68
2021/12/19 13:46:09;;;;;;;2.75;2.55;;;4.20;99.90;;;;;;5068423;28;20465;-69
2021/12/19 13:48:52;;;;;;;5.75;3.30;;;4.20;99.90;;;;;;5068138;28;20249;-67
2021/12/19 13:51:23;;;;;;;7.63;3.30;;;4.20;99.90;;;;;;5068305;28;20423;-68
2021/12/19 13:54:03;;;;;;;3.97;2.63;;;4.20;99.90;;;;;;5068267;28;20193;-66
2021/12/19 13:56:32;;;;;;;2.60;2.40;;;4.20;99.90;;;;;;5067981;28;20233;-66
2021/12/19 13:59:00;;;;;;;7.10;4.20;;;4.20;99.90;;;;;;5067953;28;20270;-67
2021/12/19 14:01:27;;;;;;;5.20;3.58;;;4.20;99.90;;;;;;5068178;28;20178;-69
2021/12/19 14:04:12;;;;;;;10.25;5.55;;;4.30;99.90;;;;;;5068289;28;20318;-66
2021/12/19 14:06:39;;;;;;;6.18;5.25;;;4.30;99.90;;;;;;5051598;28;20154;-66
2021/12/19 14:09:14;;;;;;;5.43;4.00;;;4.20;99.90;;;;;;5068147;28;20237;-67
2021/12/19 14:11:43;;;;;;;5.03;4.55;;;4.20;99.90;;;;;;5068218;28;20263;-69
2021/12/19 14:17:11;;;;;;;3.72;3.33;;;4.10;99.90;;;;;;5086268;28;20340;-66
2021/12/19 14:19:48;;;;;;;4.95;3.80;;;4.00;99.90;;;;;;5087675;28;20242;-70
2021/12/19 14:22:16;;;;;;;5.88;4.00;;;3.90;99.90;;;;;;5087788;28;20171;-67